KEAT/EAT METAR and TAF weather

Enter ICAO airport designator
Station Type Date Time Source
KEAT METAR 2022/01/26 19:55 UTC NOAA

KEAT 261955Z AUTO 00000KT 10SM OVC013 M03/M06 A3042 RMK AO2 SLP317 T10281056


Station Type Date Time Source
KEAT Decoded METAR 2022/01/26 19:55 UTC NOAA

WENATCHEE PANGBORN MEMO, WA, United States (KEAT) 47-24N 120-12W 377M
Jan 26, 2022 - 02:55 PM EST / 2022.01.26 1955 UTC
Wind: Calm:0
Visibility: 10 mile(s):0
Sky conditions: overcast
Temperature: 27.0 F (-2.8 C)
Dew Point: 21.9 F (-5.6 C)
Relative Humidity: 81%
Pressure (altimeter): 30.42 in. Hg (1030 hPa)
ob: KEAT 261955Z AUTO 00000KT 10SM OVC013 M03/M06 A3042 RMK AO2 SLP317 T10281056
cycle: 20

Station Type Date Time Source
KEAT TAF 2022/01/26 18:36 UTC NOAA

TAF KEAT 261735Z 2618/2718 31009KT P6SM OVC015
FM262200 VRB02KT P6SM OVC020
FM270600 VRB02KT P6SM OVC015

Example: see airport list